createdAt,value
2022-08-07T00:00:19.614Z,87.96
2022-08-07T00:03:04.928Z,87.12
2022-08-07T00:05:50.514Z,86.43
2022-08-07T00:08:36.577Z,86.77
2022-08-07T00:11:33.071Z,87.57
2022-08-07T00:14:18.371Z,86.41
2022-08-07T00:17:04.361Z,86.33
2022-08-07T00:20:01.198Z,86.06
2022-08-07T00:22:51.712Z,86.62
2022-08-07T00:25:41.537Z,86.79
2022-08-07T00:28:33.450Z,86.87
2022-08-07T00:31:19.297Z,87.21
2022-08-07T00:34:04.198Z,87.36
2022-08-07T00:36:54.549Z,87.06
2022-08-07T00:39:45.044Z,88.29
2022-08-07T00:42:32.946Z,89.17
2022-08-07T00:45:21.700Z,88.59
2022-08-07T00:48:11.047Z,88.47
2022-08-07T00:50:56.655Z,88.76
2022-08-07T00:53:50.147Z,87.77
2022-08-07T00:56:37.243Z,88.18
2022-08-07T00:59:35.491Z,88.40
2022-08-07T01:02:28.838Z,88.81
2022-08-07T01:05:19.154Z,88.77
2022-08-07T01:08:05.090Z,87.76
2022-08-07T01:10:56.480Z,87.12
2022-08-07T01:13:46.740Z,87.46
2022-08-07T01:16:42.970Z,87.59
2022-08-07T01:19:32.552Z,87.15
2022-08-07T01:22:22.735Z,88.07
2022-08-07T01:25:54.614Z,88.86
2022-08-07T01:28:19.956Z,88.56
2022-08-07T01:31:05.433Z,89.25
2022-08-07T01:33:55.491Z,90.70
2022-08-07T01:36:41.899Z,90.16
2022-08-07T01:39:41.293Z,90.37
2022-08-07T01:42:39.491Z,90.94
2022-08-07T01:45:40.138Z,91.16
2022-08-07T01:48:30.282Z,91.90
2022-08-07T01:51:24.748Z,91.48
2022-08-07T01:54:36.555Z,91.38
2022-08-07T01:57:27.819Z,92.29
2022-08-07T02:00:13.908Z,91.29
2022-08-07T02:03:18.298Z,90.18
2022-08-07T02:06:31.918Z,91.64
2022-08-07T02:09:33.736Z,91.99
2022-08-07T02:12:31.419Z,91.01
2022-08-07T02:15:22.602Z,89.69
2022-08-07T02:18:12.246Z,89.08
2022-08-07T02:21:00.057Z,90.15
2022-08-07T02:23:51.758Z,91.84
2022-08-07T02:26:39.229Z,91.60
2022-08-07T02:29:25.045Z,92.09
2022-08-07T02:32:13.698Z,92.85
2022-08-07T02:35:01.129Z,92.22
2022-08-07T02:37:48.001Z,90.98
2022-08-07T02:40:35.449Z,90.82
2022-08-07T02:43:22.547Z,90.89
2022-08-07T02:46:11.294Z,90.52
2022-08-07T02:48:56.657Z,91.20
2022-08-07T02:51:52.074Z,90.78
2022-08-07T02:54:41.074Z,90.47
2022-08-07T02:57:30.972Z,90.52
2022-08-07T03:00:19.858Z,90.78
2022-08-07T03:03:07.829Z,90.32
2022-08-07T03:05:59.721Z,89.48
2022-08-07T03:08:46.080Z,90.04
2022-08-07T03:11:38.645Z,90.18
2022-08-07T03:14:25.929Z,91.11
2022-08-07T03:17:13.063Z,90.93
2022-08-07T03:20:00.060Z,90.73
2022-08-07T03:22:50.320Z,90.06
2022-08-07T03:25:40.480Z,90.31
2022-08-07T03:28:38.211Z,90.26
2022-08-07T03:31:42.759Z,91.26
2022-08-07T03:34:32.905Z,91.42
2022-08-07T03:37:27.489Z,91.58
2022-08-07T03:40:16.751Z,91.82
2022-08-07T03:43:02.882Z,92.09
2022-08-07T03:45:48.596Z,92.24
2022-08-07T03:48:45.725Z,92.22
2022-08-07T03:51:47.932Z,93.19
2022-08-07T03:54:54.245Z,92.60
2022-08-07T03:58:33.134Z,91.61
2022-08-07T04:00:53.319Z,91.26
2022-08-07T04:03:49.760Z,91.08
2022-08-07T04:06:40.321Z,90.46
2022-08-07T04:09:38.031Z,91.61
2022-08-07T04:12:31.628Z,92.39
2022-08-07T04:15:20.478Z,92.95
2022-08-07T04:18:57.519Z,92.32
2022-08-07T04:21:16.670Z,92.76
2022-08-07T04:24:07.838Z,92.41
2022-08-07T04:26:53.257Z,93.26
2022-08-07T04:29:48.835Z,93.75
2022-08-07T04:32:48.076Z,94.15
2022-08-07T04:35:50.593Z,94.00
2022-08-07T04:38:37.058Z,94.48
2022-08-07T04:41:22.278Z,93.85
2022-08-07T04:44:13.171Z,93.23
2022-08-07T04:47:11.419Z,93.50
2022-08-07T04:50:35.271Z,93.72
2022-08-07T04:54:05.759Z,94.38
2022-08-07T04:58:16.316Z,95.00
2022-08-07T05:00:18.879Z,95.13
2022-08-07T05:03:59.921Z,96.12
2022-08-07T05:07:19.558Z,96.59
2022-08-07T05:10:14.131Z,96.85
2022-08-07T05:14:44.284Z,96.43
2022-08-07T05:16:17.171Z,96.77
2022-08-07T05:19:13.180Z,96.67
2022-08-07T05:22:01.988Z,96.39
2022-08-07T05:24:50.471Z,96.85
2022-08-07T05:28:02.601Z,96.63
2022-08-07T05:30:42.549Z,96.59
2022-08-07T05:33:29.258Z,96.36
2022-08-07T05:36:22.410Z,96.77
2022-08-07T05:40:07.111Z,95.91
2022-08-07T05:42:14.745Z,96.05
2022-08-07T05:45:26.370Z,95.92
2022-08-07T05:48:26.518Z,95.62
2022-08-07T05:51:14.921Z,96.28
2022-08-07T05:54:13.381Z,96.60
2022-08-07T05:57:09.010Z,96.28
2022-08-07T05:59:57.700Z,96.03
2022-08-07T06:02:47.564Z,95.24
2022-08-07T06:05:34.230Z,95.35
2022-08-07T06:08:30.855Z,95.21
2022-08-07T06:11:17.041Z,95.00
2022-08-07T06:14:11.852Z,95.03
2022-08-07T06:17:07.040Z,93.91
2022-08-07T06:20:03.413Z,93.56
2022-08-07T06:22:50.562Z,92.48
2022-08-07T06:25:54.782Z,91.57
2022-08-07T06:28:53.012Z,91.11
2022-08-07T06:31:46.644Z,90.33
2022-08-07T06:34:35.489Z,88.97
2022-08-07T06:37:20.855Z,88.20
2022-08-07T06:40:16.174Z,85.21
2022-08-07T06:43:21.600Z,83.67
2022-08-07T06:46:12.509Z,82.83
2022-08-07T06:48:58.466Z,82.96
2022-08-07T06:51:49.839Z,82.64
2022-08-07T06:55:33.577Z,80.31
2022-08-07T06:57:49.973Z,79.63
2022-08-07T07:00:42.456Z,78.66
2022-08-07T07:03:39.779Z,75.78
2022-08-07T07:06:34.191Z,75.26
2022-08-07T07:09:31.275Z,74.94
2022-08-07T07:12:31.168Z,73.85
2022-08-07T07:15:32.591Z,73.20
2022-08-07T07:19:00.133Z,74.53
2022-08-07T07:22:04.774Z,73.01
2022-08-07T07:25:14.125Z,68.91
2022-08-07T07:28:42.406Z,64.35
2022-08-07T07:31:40.160Z,61.16
2022-08-07T07:34:32.154Z,57.88
2022-08-07T07:37:45.086Z,57.77
2022-08-07T07:40:26.059Z,56.65
2022-08-07T07:43:18.465Z,55.66
2022-08-07T07:46:38.296Z,54.31
2022-08-07T07:50:32.962Z,53.73
2022-08-07T07:52:26.114Z,50.82
2022-08-07T07:55:12.921Z,49.70
2022-08-07T07:57:58.796Z,48.99
2022-08-07T08:00:48.715Z,48.35
2022-08-07T08:04:09.551Z,47.70
2022-08-07T08:06:50.922Z,46.26
2022-08-07T08:09:52.017Z,44.08
2022-08-07T08:12:52.459Z,40.30
2022-08-07T08:15:57.497Z,41.76
2022-08-07T08:18:45.503Z,43.41
2022-08-07T08:21:56.928Z,40.34
2022-08-07T08:24:47.627Z,42.00
2022-08-07T08:27:43.901Z,39.81
2022-08-07T08:30:51.512Z,41.47
2022-08-07T08:33:42.375Z,40.19
2022-08-07T08:36:36.313Z,38.62
2022-08-07T08:39:25.085Z,38.20
2022-08-07T08:42:52.461Z,38.54
2022-08-07T08:46:00.561Z,35.70
2022-08-07T08:49:07.113Z,34.50
2022-08-07T08:52:14.041Z,33.22
2022-08-07T08:55:09.514Z,34.83
2022-08-07T08:58:20.352Z,34.33
2022-08-07T09:01:19.929Z,33.75
2022-08-07T09:04:25.953Z,31.51
2022-08-07T09:07:27.058Z,32.99
2022-08-07T09:10:25.280Z,31.33
2022-08-07T09:13:36.953Z,32.26
2022-08-07T09:16:41.702Z,30.58
2022-08-07T09:20:35.265Z,33.16
2022-08-07T09:24:33.426Z,30.41
2022-08-07T09:27:04.574Z,30.65
2022-08-07T09:30:08.718Z,31.45
2022-08-07T09:33:05.533Z,29.64
2022-08-07T09:36:11.761Z,30.43
2022-08-07T09:39:52.741Z,30.42
2022-08-07T09:42:29.239Z,30.85
2022-08-07T09:47:42.382Z,31.48
2022-08-07T09:50:01.738Z,28.94
2022-08-07T09:52:42.726Z,30.71
2022-08-07T09:56:37.296Z,30.32
2022-08-07T10:00:01.479Z,29.03
2022-08-07T10:03:08.281Z,31.76
2022-08-07T10:06:25.166Z,32.14
2022-08-07T10:09:42.507Z,31.60
2022-08-07T10:13:54.952Z,36.03
2022-08-07T10:16:41.228Z,31.49
2022-08-07T10:19:55.568Z,32.92
2022-08-07T10:23:09.760Z,36.89
2022-08-07T10:25:55.134Z,34.21
2022-08-07T10:28:49.943Z,34.12
2022-08-07T10:31:52.865Z,34.16
2022-08-07T10:34:59.768Z,31.98
2022-08-07T10:38:35.186Z,30.97
2022-08-07T10:41:51.749Z,32.35
2022-08-07T10:44:51.827Z,30.68
2022-08-07T10:47:53.595Z,30.64
2022-08-07T10:50:50.309Z,32.02
2022-08-07T10:54:11.581Z,32.40
2022-08-07T10:57:36.933Z,32.86
2022-08-07T11:00:39.227Z,29.45
2022-08-07T11:03:42.934Z,30.12
2022-08-07T11:06:59.271Z,33.94
2022-08-07T11:10:07.461Z,32.27
2022-08-07T11:14:45.362Z,32.67
2022-08-07T11:16:54.730Z,32.79
2022-08-07T11:19:50.468Z,36.03
2022-08-07T11:22:45.873Z,35.04
2022-08-07T11:25:49.991Z,35.49
2022-08-07T11:28:40.788Z,36.60
2022-08-07T11:31:53.734Z,36.14
2022-08-07T11:34:48.676Z,35.92
2022-08-07T11:37:58.271Z,34.09
2022-08-07T11:41:03.798Z,34.64
2022-08-07T11:44:12.645Z,34.43
2022-08-07T11:47:55.973Z,34.46
2022-08-07T11:51:40.868Z,35.50
2022-08-07T11:55:01.184Z,36.34
2022-08-07T11:58:13.226Z,34.02
2022-08-07T12:01:09.575Z,33.12
2022-08-07T12:04:08.911Z,32.82
2022-08-07T12:07:20.593Z,30.86
2022-08-07T12:10:19.010Z,29.77
2022-08-07T12:13:17.177Z,29.93
2022-08-07T12:16:09.230Z,30.85
2022-08-07T12:19:21.729Z,28.46
2022-08-07T12:22:37.475Z,28.68
2022-08-07T12:26:05.311Z,26.56
2022-08-07T12:28:31.207Z,26.88
2022-08-07T12:32:01.317Z,26.02
2022-08-07T12:34:49.561Z,26.17
2022-08-07T12:38:09.562Z,24.94
2022-08-07T12:40:50.541Z,24.88
2022-08-07T12:44:02.791Z,25.90
2022-08-07T12:46:59.754Z,26.38
2022-08-07T12:50:04.741Z,25.27
2022-08-07T12:53:00.535Z,25.27
2022-08-07T12:56:09.554Z,24.45
2022-08-07T12:58:59.593Z,24.35
2022-08-07T13:02:09.975Z,24.21
2022-08-07T13:06:01.746Z,24.11
2022-08-07T13:08:50.468Z,23.08
2022-08-07T13:12:02.242Z,22.69
2022-08-07T13:15:14.209Z,22.96
2022-08-07T13:18:28.256Z,22.95
2022-08-07T13:21:51.237Z,22.86
2022-08-07T13:24:37.058Z,23.09
2022-08-07T13:28:10.806Z,25.22
2022-08-07T13:31:13.462Z,26.52
2022-08-07T13:34:33.003Z,27.75
2022-08-07T13:37:32.596Z,27.47
2022-08-07T13:40:41.854Z,29.39
2022-08-07T13:43:29.018Z,28.67
2022-08-07T13:46:28.263Z,27.78
2022-08-07T13:50:35.518Z,29.63
2022-08-07T13:52:32.078Z,31.09
2022-08-07T13:55:26.321Z,31.04
2022-08-07T13:58:18.927Z,32.23
2022-08-07T14:01:15.964Z,30.72
2022-08-07T14:04:15.866Z,32.97
2022-08-07T14:07:09.638Z,31.67
2022-08-07T14:10:17.689Z,32.02
2022-08-07T14:13:05.388Z,34.47
2022-08-07T14:16:01.740Z,33.16
2022-08-07T14:18:57.212Z,33.83
2022-08-07T14:22:04.160Z,34.26
2022-08-07T14:24:54.112Z,37.41
2022-08-07T14:28:12.263Z,34.92
2022-08-07T14:30:55.127Z,35.62
2022-08-07T14:33:45.117Z,36.86
2022-08-07T14:36:32.943Z,35.86
2022-08-07T14:40:16.273Z,37.95
2022-08-07T14:42:32.566Z,36.01
2022-08-07T14:45:22.479Z,36.67
2022-08-07T14:48:09.382Z,41.54
2022-08-07T14:51:15.776Z,37.22
2022-08-07T14:54:30.151Z,37.25
2022-08-07T14:57:15.080Z,36.72
2022-08-07T15:00:20.808Z,38.08
2022-08-07T15:03:19.426Z,36.14
2022-08-07T15:06:05.581Z,36.56
2022-08-07T15:08:55.833Z,39.35
2022-08-07T15:11:53.879Z,40.23
2022-08-07T15:14:58.112Z,41.27
2022-08-07T15:20:55.567Z,37.71
2022-08-07T15:25:14.601Z,38.48
2022-08-07T15:26:57.362Z,40.44
2022-08-07T15:33:03.756Z,43.95
2022-08-07T15:39:03.826Z,43.48
2022-08-07T15:42:46.252Z,44.77
2022-08-07T15:45:12.342Z,40.38
2022-08-07T15:48:20.359Z,39.85
2022-08-07T15:51:10.080Z,40.25
2022-08-07T15:54:00.451Z,40.32
2022-08-07T15:56:48.305Z,44.42
2022-08-07T15:59:39.898Z,44.79
2022-08-07T16:02:35.536Z,41.24
2022-08-07T16:05:23.079Z,40.24
2022-08-07T16:08:30.206Z,40.73
2022-08-07T16:11:40.135Z,41.84
2022-08-07T16:14:45.163Z,42.36
2022-08-07T16:18:02.283Z,41.31
2022-08-07T16:22:01.682Z,43.92
2022-08-07T16:24:33.661Z,43.98
2022-08-07T16:27:26.534Z,45.06
2022-08-07T16:30:32.628Z,45.84
2022-08-07T16:34:02.172Z,45.24
2022-08-07T16:37:01.988Z,42.96
2022-08-07T16:40:33.240Z,43.18
2022-08-07T16:44:02.555Z,41.88
2022-08-07T16:47:45.228Z,40.72
2022-08-07T16:50:52.731Z,43.99
2022-08-07T16:54:09.798Z,47.23
2022-08-07T16:58:02.253Z,46.50
2022-08-07T17:00:41.806Z,45.19
2022-08-07T17:03:57.686Z,42.43
2022-08-07T17:07:16.476Z,41.49
2022-08-07T17:10:32.283Z,42.19
2022-08-07T17:13:41.610Z,40.92
2022-08-07T17:16:55.770Z,40.59
2022-08-07T17:20:03.061Z,41.54
2022-08-07T17:23:14.816Z,41.99
2022-08-07T17:26:30.619Z,44.79
2022-08-07T17:30:14.915Z,45.45
2022-08-07T17:32:52.552Z,42.73
2022-08-07T17:36:00.568Z,41.91
2022-08-07T17:39:10.724Z,41.62
2022-08-07T17:42:06.998Z,42.68
2022-08-07T17:44:57.525Z,41.92
2022-08-07T17:47:54.104Z,41.23
2022-08-07T17:50:46.998Z,42.58
2022-08-07T17:54:00.967Z,45.41
2022-08-07T17:57:04.776Z,46.43
2022-08-07T18:00:07.864Z,48.06
2022-08-07T18:03:01.056Z,49.24
2022-08-07T18:06:02.373Z,50.44
2022-08-07T18:09:05.433Z,51.55
2022-08-07T18:12:16.286Z,50.53
2022-08-07T18:15:11.239Z,49.66
2022-08-07T18:18:46.224Z,50.79
2022-08-07T18:21:42.040Z,50.77
2022-08-07T18:24:33.544Z,50.49
2022-08-07T18:27:39.283Z,48.93
2022-08-07T18:30:37.800Z,50.56
2022-08-07T18:33:55.339Z,49.87
2022-08-07T18:38:58.005Z,50.95
2022-08-07T18:40:56.138Z,49.05
2022-08-07T18:43:59.801Z,50.78
2022-08-07T18:47:09.570Z,54.06
2022-08-07T18:50:38.726Z,55.33
2022-08-07T18:53:57.729Z,56.15
2022-08-07T18:57:29.391Z,58.13
2022-08-07T19:00:32.779Z,59.18
2022-08-07T19:03:35.563Z,59.59
2022-08-07T19:06:54.838Z,59.49
2022-08-07T19:10:05.216Z,59.85
2022-08-07T19:12:58.145Z,61.31
2022-08-07T19:17:02.979Z,61.34
2022-08-07T19:20:03.284Z,62.03
2022-08-07T19:23:17.746Z,61.52
2022-08-07T19:26:21.622Z,63.58
2022-08-07T19:30:58.066Z,63.13
2022-08-07T19:32:26.919Z,63.35
2022-08-07T19:35:22.465Z,63.41
2022-08-07T19:38:16.845Z,63.93
2022-08-07T19:41:03.400Z,64.16
2022-08-07T19:43:56.802Z,62.48
2022-08-07T19:46:55.586Z,64.15
2022-08-07T19:49:58.192Z,65.02
2022-08-07T19:52:58.631Z,65.29
2022-08-07T19:55:58.113Z,66.68
2022-08-07T19:58:53.126Z,67.61
2022-08-07T20:01:52.614Z,67.37
2022-08-07T20:04:46.219Z,65.14
2022-08-07T20:07:47.498Z,65.53
2022-08-07T20:10:54.492Z,66.72
2022-08-07T20:13:47.150Z,67.05
2022-08-07T20:16:36.150Z,68.17
2022-08-07T20:19:28.741Z,69.04
2022-08-07T20:22:34.136Z,67.49
2022-08-07T20:25:23.897Z,68.75
2022-08-07T20:28:12.655Z,69.16
2022-08-07T20:31:01.354Z,69.94
2022-08-07T20:33:51.703Z,70.14
2022-08-07T20:36:44.123Z,71.22
2022-08-07T20:40:03.925Z,71.55
2022-08-07T20:42:48.017Z,71.68
2022-08-07T20:46:28.203Z,71.19
2022-08-07T20:48:58.203Z,72.03
2022-08-07T20:51:56.110Z,72.46
2022-08-07T20:54:53.031Z,73.52
2022-08-07T20:57:47.457Z,73.20
2022-08-07T21:00:51.124Z,73.49
2022-08-07T21:03:45.091Z,73.59
2022-08-07T21:06:53.098Z,73.78
2022-08-07T21:09:53.187Z,73.53
2022-08-07T21:12:47.276Z,73.01
2022-08-07T21:15:47.518Z,73.85
2022-08-07T21:18:46.133Z,75.61
2022-08-07T21:21:56.927Z,77.18
2022-08-07T21:24:47.890Z,76.43
2022-08-07T21:28:01.679Z,75.79
2022-08-07T21:31:01.161Z,74.76
2022-08-07T21:33:54.624Z,74.53
2022-08-07T21:36:50.219Z,75.51
2022-08-07T21:39:51.809Z,75.17
2022-08-07T21:42:59.424Z,75.68
2022-08-07T21:46:08.017Z,75.66
2022-08-07T21:49:26.778Z,75.74
2022-08-07T21:52:33.212Z,76.72
2022-08-07T21:55:50.786Z,77.60
2022-08-07T21:58:55.051Z,76.75
2022-08-07T22:02:10.888Z,77.31
2022-08-07T22:05:02.916Z,78.55
2022-08-07T22:07:58.781Z,79.00
2022-08-07T22:10:47.777Z,79.00
2022-08-07T22:13:51.233Z,78.72
2022-08-07T22:16:47.605Z,77.97
2022-08-07T22:19:44.273Z,77.90
2022-08-07T22:22:58.878Z,78.22
2022-08-07T22:26:10.492Z,79.82
2022-08-07T22:29:33.803Z,80.36
2022-08-07T22:32:34.290Z,79.53
2022-08-07T22:35:23.203Z,78.74
2022-08-07T22:38:32.957Z,78.96
2022-08-07T22:42:02.509Z,78.74
2022-08-07T22:44:36.223Z,79.39
2022-08-07T22:47:49.218Z,80.96
2022-08-07T22:50:37.606Z,81.46
2022-08-07T22:54:05.676Z,80.39
2022-08-07T22:57:25.962Z,80.06
2022-08-07T23:00:21.455Z,80.07
2022-08-07T23:03:23.779Z,77.80
2022-08-07T23:06:24.034Z,79.79
2022-08-07T23:10:03.698Z,80.63
2022-08-07T23:12:55.663Z,80.97
2022-08-07T23:16:46.432Z,80.07
2022-08-07T23:19:57.902Z,79.17
2022-08-07T23:23:05.048Z,79.46
2022-08-07T23:26:23.543Z,79.46
2022-08-07T23:30:35.788Z,79.15
2022-08-07T23:34:23.671Z,79.82
2022-08-07T23:36:28.753Z,80.22
2022-08-07T23:39:25.572Z,81.70
2022-08-07T23:42:38.042Z,82.69
2022-08-07T23:46:02.787Z,83.18
2022-08-07T23:49:23.045Z,83.22
2022-08-07T23:52:58.104Z,84.25
2022-08-07T23:55:52.464Z,82.56
